Time;durP1;ratioP1;P1;durP2;ratioP2;P2;SDS_P1;SDS_P2;PMS_P1;PMS_P2;Temp;Humidity;BMP_temperature;BMP_pressure;BME280_temperature;BME280_humidity;BME280_pressure;Samples;Min_cycle;Max_cycle;Signal;HPM_P1;HPM_P2
2021/06/01 00:01:06;;;;;;;;;;;;;;;19.99;43.72;100989.94;5045652;28;19913;-80
2021/06/01 00:03:50;;;;;;;;;;;;;;;20.03;43.40;100990.00;5044591;28;19920;-79
2021/06/01 00:06:35;;;;;;;;;;;;;;;20.00;43.27;100993.50;5044092;28;19916;-81
2021/06/01 00:09:20;;;;;;;;;;;;;;;19.96;43.48;100989.91;5053840;28;19913;-83
2021/06/01 00:12:05;;;;;;;;;;;;;;;20.01;43.61;100995.09;5052813;28;19916;-84
2021/06/01 00:14:50;;;;;;;;;;;;;;;20.02;43.79;100986.44;5055886;28;19913;-84
2021/06/01 00:17:35;;;;;;;;;;;;;;;20.03;43.75;100978.94;5048082;28;19913;-85
2021/06/01 00:20:19;;;;;;;;;;;;;;;19.95;43.19;100986.34;5053874;28;19913;-86
2021/06/01 00:23:04;;;;;;;;;;;;;;;19.95;43.37;100983.59;5049574;28;19917;-86
2021/06/01 00:25:48;;;;;;;;;;;;;;;19.98;43.45;100984.78;5051202;28;19912;-80
2021/06/01 00:28:33;;;;;;;;;;;;;;;19.95;43.27;100983.59;5048894;28;19913;-86
2021/06/01 00:31:19;;;;;;;;;;;;;;;19.96;43.61;100982.38;5052115;28;19947;-82
2021/06/01 00:34:03;;;;;;;;;;;;;;;19.91;43.53;100982.72;5038271;28;19917;-83
2021/06/01 00:36:48;;;;;;;;;;;;;;;19.96;43.59;100989.91;5046799;28;19916;-84
2021/06/01 00:39:33;;;;;;;;;;;;;;;19.96;43.67;100978.88;5049723;28;20292;-83
2021/06/01 00:42:17;;;;;;;;;;;;;;;19.98;43.06;100987.56;5048462;28;19924;-84
2021/06/01 00:45:02;;;;;;;;;;;;;;;19.92;43.30;100981.56;5047623;28;19920;-84
2021/06/01 00:47:47;;;;;;;;;;;;;;;19.93;43.35;100985.09;5042525;28;19913;-83
2021/06/01 00:50:32;;;;;;;;;;;;;;;19.97;43.30;100985.94;5046006;28;19913;-85
2021/06/01 00:53:16;;;;;;;;;;;;;;;19.86;43.02;100993.31;5045783;28;19912;-80
2021/06/01 00:56:03;;;;;;;;;;;;;;;19.87;42.90;100987.38;5031476;28;19916;-83
2021/06/01 00:58:47;;;;;;;;;;;;;;;19.74;43.37;100985.22;5054323;28;20381;-81
2021/06/01 01:01:32;;;;;;;;;;;;;;;19.81;43.20;100988.09;5034837;28;19913;-82
2021/06/01 01:04:16;;;;;;;;;;;;;;;19.83;42.84;100994.81;5048274;28;20300;-82
2021/06/01 01:07:18;;;;;;;;;;;;;;;19.86;42.67;100996.06;5049734;28;19917;-84
2021/06/01 01:10:03;;;;;;;;;;;;;;;19.95;42.68;100993.81;5048041;28;19913;-81
2021/06/01 01:12:52;;;;;;;;;;;;;;;19.90;42.58;100981.16;5042868;28;19920;-82
2021/06/01 01:15:37;;;;;;;;;;;;;;;19.90;42.84;100991.38;5046251;28;19913;-80
2021/06/01 01:18:22;;;;;;;;;;;;;;;19.84;42.66;100987.34;5046375;28;20365;-80
2021/06/01 01:21:13;;;;;;;;;;;;;;;19.83;43.18;100991.25;5047488;28;19912;-85
2021/06/01 01:24:18;;;;;;;;;;;;;;;19.83;42.71;100986.53;5046716;28;19938;-80
2021/06/01 01:27:22;;;;;;;;;;;;;;;19.84;42.82;100995.63;5026137;28;19913;-83
2021/06/01 01:30:08;;;;;;;;;;;;;;;19.86;42.47;100996.06;5047246;28;19913;-82
2021/06/01 01:32:58;;;;;;;;;;;;;;;19.90;42.84;100994.94;5048514;28;19912;-83
2021/06/01 01:35:44;;;;;;;;;;;;;;;19.82;42.96;100993.22;5045861;28;19921;-82
2021/06/01 01:38:30;;;;;;;;;;;;;;;19.76;42.64;100989.19;5050709;28;19912;-82
2021/06/01 01:41:15;;;;;;;;;;;;;;;19.82;43.05;100990.47;5044912;28;19917;-81
2021/06/01 01:44:01;;;;;;;;;;;;;;;19.81;42.55;100988.88;5043292;28;19925;-80
2021/06/01 01:49:32;;;;;;;;;;;;;;;19.69;42.64;100993.81;5056017;28;19913;-84
2021/06/01 01:52:17;;;;;;;;;;;;;;;19.76;42.79;101004.97;5053470;28;19912;-84
2021/06/01 01:55:04;;;;;;;;;;;;;;;19.76;42.88;100996.69;5058393;28;19912;-82
2021/06/01 01:57:50;;;;;;;;;;;;;;;19.61;42.11;101007.47;5058021;28;19913;-84
2021/06/01 02:00:34;;;;;;;;;;;;;;;19.41;42.49;101007.88;5051880;28;19913;-82
2021/06/01 02:03:21;;;;;;;;;;;;;;;19.37;43.10;101007.03;5049876;28;19975;-82
2021/06/01 02:06:05;;;;;;;;;;;;;;;19.26;43.30;101006.03;5054919;28;20385;-83
2021/06/01 02:08:50;;;;;;;;;;;;;;;19.27;43.42;101013.94;5059454;28;19916;-82
2021/06/01 02:11:35;;;;;;;;;;;;;;;19.29;42.41;101005.31;5047200;28;20392;-82
2021/06/01 02:14:20;;;;;;;;;;;;;;;19.23;42.34;101013.09;5048768;28;20587;-84
2021/06/01 02:17:05;;;;;;;;;;;;;;;19.17;41.93;100998.00;5043004;28;19913;-84
2021/06/01 02:19:50;;;;;;;;;;;;;;;19.13;41.94;101002.66;5054357;28;19913;-81
2021/06/01 02:26:22;;;;;;;;;;;;;;;19.20;43.16;101003.59;4977619;28;19922;-81
2021/06/01 02:29:11;;;;;;;;;;;;;;;19.05;44.48;101007.25;5046858;28;19913;-82
2021/06/01 02:31:57;;;;;;;;;;;;;;;19.03;44.99;101000.50;5044953;28;19917;-80
2021/06/01 02:34:43;;;;;;;;;;;;;;;18.92;45.24;100997.56;5049892;28;19925;-83
2021/06/01 02:37:27;;;;;;;;;;;;;;;18.88;44.83;101004.97;5060233;28;20301;-84
2021/06/01 02:40:14;;;;;;;;;;;;;;;18.89;45.24;100991.97;5055346;28;19913;-80
2021/06/01 02:43:00;;;;;;;;;;;;;;;18.85;44.48;101002.09;5054396;28;19924;-82
2021/06/01 02:45:45;;;;;;;;;;;;;;;18.90;44.11;100994.34;5055332;28;19912;-82
2021/06/01 02:48:31;;;;;;;;;;;;;;;18.98;43.58;100995.28;5054273;28;19917;-81
2021/06/01 02:51:17;;;;;;;;;;;;;;;19.07;42.63;100998.59;5053781;28;19912;-85
2021/06/01 02:54:04;;;;;;;;;;;;;;;19.11;42.52;101000.28;5051378;28;20380;-84
2021/06/01 02:56:50;;;;;;;;;;;;;;;18.98;42.68;100992.53;5047439;28;19912;-81
2021/06/01 02:59:37;;;;;;;;;;;;;;;18.93;43.29;100993.63;5051069;28;19913;-84
2021/06/01 03:02:21;;;;;;;;;;;;;;;18.92;43.34;100994.00;5053093;28;19921;-84
2021/06/01 03:05:06;;;;;;;;;;;;;;;18.84;42.77;100992.28;5048570;28;19913;-83
2021/06/01 03:07:52;;;;;;;;;;;;;;;18.82;44.45;100991.81;5054783;28;19912;-84
2021/06/01 03:10:36;;;;;;;;;;;;;;;18.83;45.01;100993.44;5058745;28;20447;-84
2021/06/01 03:13:21;;;;;;;;;;;;;;;18.70;45.88;100993.56;5052131;28;19917;-84
2021/06/01 03:16:05;;;;;;;;;;;;;;;18.75;45.79;100998.00;5059221;28;19920;-83
2021/06/01 03:18:50;;;;;;;;;;;;;;;18.72;46.16;100994.00;5049849;28;21343;-82
2021/06/01 03:21:35;;;;;;;;;;;;;;;18.76;46.52;100994.88;5049011;28;19913;-83
2021/06/01 03:24:19;;;;;;;;;;;;;;;18.69;46.92;100988.44;5052219;28;19925;-83
2021/06/01 03:27:05;;;;;;;;;;;;;;;18.66;47.30;100986.41;5046789;28;19920;-81
2021/06/01 03:29:50;;;;;;;;;;;;;;;18.64;47.41;100992.25;5051861;28;19912;-83
2021/06/01 03:32:34;;;;;;;;;;;;;;;18.58;47.34;100990.97;5048689;28;19912;-83
2021/06/01 03:35:19;;;;;;;;;;;;;;;18.55;47.80;100988.94;5054542;28;20385;-83
2021/06/01 03:38:04;;;;;;;;;;;;;;;18.54;48.00;100992.06;5050890;28;19912;-79
2021/06/01 03:40:49;;;;;;;;;;;;;;;18.61;47.48;100994.94;5057187;28;19912;-83
2021/06/01 03:43:33;;;;;;;;;;;;;;;18.62;47.60;100991.84;5049837;28;19917;-83
2021/06/01 03:46:18;;;;;;;;;;;;;;;18.70;47.35;100993.56;5049224;28;20373;-82
2021/06/01 03:49:02;;;;;;;;;;;;;;;18.72;47.22;100984.94;5045946;28;20308;-82
2021/06/01 03:51:47;;;;;;;;;;;;;;;18.63;47.30;100993.44;5051041;28;19913;-84
2021/06/01 03:54:31;;;;;;;;;;;;;;;18.62;46.97;100991.84;5047155;28;19918;-84
2021/06/01 03:57:16;;;;;;;;;;;;;;;18.58;47.41;100990.97;5045279;28;19913;-84
2021/06/01 04:00:01;;;;;;;;;;;;;;;18.59;48.18;100992.56;5055273;28;19917;-83
2021/06/01 04:02:46;;;;;;;;;;;;;;;18.55;47.25;100988.13;5033389;28;19917;-83
2021/06/01 04:05:30;;;;;;;;;;;;;;;18.49;47.45;100993.09;5055199;28;19912;-83
2021/06/01 04:08:15;;;;;;;;;;;;;;;18.49;47.21;100998.59;5049137;28;19913;-84
2021/06/01 04:11:00;;;;;;;;;;;;;;;18.59;47.10;100995.31;5053719;28;19917;-82
2021/06/01 04:13:44;;;;;;;;;;;;;;;18.62;47.00;100997.34;5053473;28;20321;-81
2021/06/01 04:16:30;;;;;;;;;;;;;;;18.60;47.06;100996.09;5042670;28;19912;-84
2021/06/01 04:19:14;;;;;;;;;;;;;;;18.60;47.41;100996.09;5053472;28;19913;-83
2021/06/01 04:22:00;;;;;;;;;;;;;;;18.60;47.12;100993.34;5049026;28;19913;-80
2021/06/01 04:24:45;;;;;;;;;;;;;;;18.62;46.46;100991.84;5054427;28;19916;-82
2021/06/01 04:27:29;;;;;;;;;;;;;;;18.59;46.64;100992.56;5053465;28;19913;-84
2021/06/01 04:30:14;;;;;;;;;;;;;;;18.64;47.00;100997.00;5032368;28;19912;-82
2021/06/01 04:32:59;;;;;;;;;;;;;;;18.64;47.04;100994.25;5042305;28;21148;-85
2021/06/01 04:35:44;;;;;;;;;;;;;;;18.68;47.07;100995.09;5048277;28;20365;-83
2021/06/01 04:38:29;;;;;;;;;;;;;;;18.62;47.98;101000.09;5044450;28;19913;-81
2021/06/01 04:41:13;;;;;;;;;;;;;;;18.60;48.20;101004.38;5047246;28;19916;-83
2021/06/01 04:43:58;;;;;;;;;;;;;;;18.61;48.72;100998.50;5031947;28;19917;-82
2021/06/01 04:46:42;;;;;;;;;;;;;;;18.65;48.56;100999.38;5045181;28;19913;-80
2021/06/01 04:49:27;;;;;;;;;;;;;;;18.66;48.55;100998.22;5043177;28;19916;-81
2021/06/01 04:52:12;;;;;;;;;;;;;;;18.72;48.58;101002.28;5047119;28;20312;-84
2021/06/01 04:54:56;;;;;;;;;;;;;;;18.69;48.90;100994.72;5054607;28;19912;-81
2021/06/01 04:57:41;;;;;;;;;;;;;;;18.69;49.34;100994.72;5043530;28;20377;-82
2021/06/01 05:00:25;;;;;;;;;;;;;;;18.73;49.22;100992.06;5053264;28;19913;-80
2021/06/01 05:03:09;;;;;;;;;;;;;;;18.79;49.93;100988.63;5055339;28;19917;-82
2021/06/01 05:05:54;;;;;;;;;;;;;;;18.83;50.02;100988.72;5048780;28;19913;-81
2021/06/01 05:08:38;;;;;;;;;;;;;;;19.06;49.47;100983.22;5049870;28;21534;-78
2021/06/01 05:11:23;;;;;;;;;;;;;;;19.34;49.16;100982.94;5048726;28;19913;-80
2021/06/01 05:14:11;;;;;;;;;;;;;;;19.56;48.76;100979.41;5043794;28;20031;-82
2021/06/01 05:16:56;;;;;;;;;;;;;;;19.72;48.40;100979.25;5050005;28;19913;-81
2021/06/01 05:19:40;;;;;;;;;;;;;;;19.83;48.27;100986.53;5045576;28;19914;-79
2021/06/01 05:22:25;;;;;;;;;;;;;;;19.94;48.09;100981.19;5044707;28;19917;-80
2021/06/01 05:25:10;;;;;;;;;;;;;;;20.02;47.87;100980.09;5050277;28;19913;-80
2021/06/01 05:27:54;;;;;;;;;;;;;;;20.09;47.95;100977.47;5050154;28;19913;-81
2021/06/01 05:30:45;;;;;;;;;;;;;;;20.16;47.68;100985.06;5050801;28;19916;-80
2021/06/01 05:33:35;;;;;;;;;;;;;;;20.19;47.73;100981.53;5048867;28;19913;-80
2021/06/01 05:36:21;;;;;;;;;;;;;;;20.22;47.45;100980.78;5044948;28;19916;-80
2021/06/01 05:39:07;;;;;;;;;;;;;;;20.23;47.00;100983.19;5042578;28;19913;-80
2021/06/01 05:41:52;;;;;;;;;;;;;;;20.27;46.44;100978.50;5049827;28;20273;-80
2021/06/01 05:44:36;;;;;;;;;;;;;;;20.34;45.95;100980.59;5049347;28;19917;-81
2021/06/01 05:47:21;;;;;;;;;;;;;;;20.35;45.27;100969.19;5047231;28;19934;-80
2021/06/01 05:50:07;;;;;;;;;;;;;;;20.41;44.57;100973.22;5055927;28;19913;-85
2021/06/01 05:52:51;;;;;;;;;;;;;;;20.39;44.18;100966.44;5054019;28;19916;-84
2021/06/01 05:55:37;;;;;;;;;;;;;;;20.44;43.58;100969.69;5053440;28;20393;-83
2021/06/01 05:58:23;;;;;;;;;;;;;;;20.31;40.84;100971.09;5056431;28;19913;-85
2021/06/01 06:01:07;;;;;;;;;;;;;;;20.29;40.67;100970.63;5053783;28;19917;-84
2021/06/01 06:03:52;;;;;;;;;;;;;;;20.37;40.65;100964.06;5060127;28;19921;-84
2021/06/01 06:06:37;;;;;;;;;;;;;;;20.45;41.76;100965.75;5051832;28;19917;-84
2021/06/01 06:09:22;;;;;;;;;;;;;;;20.43;40.90;100970.84;5049722;28;19917;-84
2021/06/01 06:12:06;;;;;;;;;;;;;;;20.51;41.68;100966.22;5050263;28;19913;-83
2021/06/01 06:14:51;;;;;;;;;;;;;;;20.61;38.63;100957.25;5051533;28;20405;-81
2021/06/01 06:17:43;;;;;;;;;;;;;;;20.74;38.92;100960.56;5048419;28;19913;-84
2021/06/01 06:20:28;;;;;;;;;;;;;;;20.80;39.15;100959.03;5055689;28;19913;-84
2021/06/01 06:23:13;;;;;;;;;;;;;;;20.87;39.68;100964.66;5049384;28;19917;-84
2021/06/01 06:25:58;;;;;;;;;;;;;;;20.83;38.35;100961.03;5047424;28;19913;-83
2021/06/01 06:28:42;;;;;;;;;;;;;;;20.87;39.87;100961.91;5051411;28;20281;-83
2021/06/01 06:31:29;;;;;;;;;;;;;;;20.89;38.21;100962.28;5048581;28;19916;-82
2021/06/01 06:34:13;;;;;;;;;;;;;;;20.87;37.51;100961.91;5045771;28;19913;-84
2021/06/01 06:36:58;;;;;;;;;;;;;;;20.83;38.01;100953.53;5052754;28;19913;-83
2021/06/01 06:39:42;;;;;;;;;;;;;;;20.67;37.65;100964.00;5035869;28;19917;-82
2021/06/01 06:42:27;;;;;;;;;;;;;;;20.83;37.60;100961.03;5047729;28;19913;-83
2021/06/01 06:45:13;;;;;;;;;;;;;;;21.01;37.69;100959.28;5053846;28;20405;-81
2021/06/01 06:48:09;;;;;;;;;;;;;;;20.83;37.20;100956.31;5053623;28;20019;-80
2021/06/01 06:50:55;;;;;;;;;;;;;;;21.11;36.37;100955.00;5050019;28;19913;-82
2021/06/01 06:53:54;;;;;;;;;;;;;;;21.18;36.26;100955.91;5057992;28;19928;-81
2021/06/01 06:56:39;;;;;;;;;;;;;;;21.23;36.46;100963.84;5053157;28;19913;-81
2021/06/01 06:59:23;;;;;;;;;;;;;;;21.37;35.96;100959.63;5046605;28;20300;-83
2021/06/01 07:02:09;;;;;;;;;;;;;;;21.40;36.44;100956.88;5049531;28;19913;-81
2021/06/01 07:04:53;;;;;;;;;;;;;;;21.47;36.98;100961.69;5049456;28;19917;-81
2021/06/01 07:07:38;;;;;;;;;;;;;;;21.43;36.97;100961.66;5043952;28;19913;-82
2021/06/01 07:10:22;;;;;;;;;;;;;;;21.43;35.46;100958.09;5054288;28;19916;-78
2021/06/01 07:13:10;;;;;;;;;;;;;;;21.60;35.85;100954.66;5050096;28;19912;-80
2021/06/01 07:15:56;;;;;;;;;;;;;;;21.59;36.49;100942.78;5050407;28;19913;-82
2021/06/01 07:18:41;;;;;;;;;;;;;;;21.50;35.51;100952.63;5053987;28;20385;-81
2021/06/01 07:21:26;;;;;;;;;;;;;;;21.72;35.12;100940.53;5053426;28;19913;-79
2021/06/01 07:24:10;;;;;;;;;;;;;;;21.82;35.83;100955.63;5052407;28;19916;-82
2021/06/01 07:26:55;;;;;;;;;;;;;;;21.83;34.54;100948.91;5058803;28;19913;-82
2021/06/01 07:29:40;;;;;;;;;;;;;;;21.90;35.61;100940.63;5038541;28;19921;-80
2021/06/01 07:32:25;;;;;;;;;;;;;;;21.90;35.10;100944.19;5050641;28;19912;-79
2021/06/01 07:35:10;;;;;;;;;;;;;;;21.87;34.74;100939.44;5053993;28;19913;-80
2021/06/01 07:37:54;;;;;;;;;;;;;;;21.80;33.90;100938.59;5055485;28;19913;-79
2021/06/01 07:40:39;;;;;;;;;;;;;;;21.90;34.19;100940.63;5048285;28;19913;-80
2021/06/01 07:43:25;;;;;;;;;;;;;;;21.97;34.30;100935.97;5048927;28;19916;-80
2021/06/01 07:46:09;;;;;;;;;;;;;;;22.15;34.89;100936.84;5054861;28;20373;-79
2021/06/01 07:48:53;;;;;;;;;;;;;;;22.22;33.95;100925.00;5051282;28;20272;-79
2021/06/01 07:51:38;;;;;;;;;;;;;;;22.23;35.12;100925.81;5038297;28;19917;-79
2021/06/01 07:54:22;;;;;;;;;;;;;;;22.21;34.97;100928.16;5042508;28;19917;-80
2021/06/01 07:57:07;;;;;;;;;;;;;;;22.42;35.33;100934.59;5047009;28;19913;-77
2021/06/01 07:59:52;;;;;;;;;;;;;;;22.22;36.50;100936.09;5048375;28;19917;-78
2021/06/01 08:02:36;;;;;;;;;;;;;;;22.41;35.33;100937.75;5030657;28;19913;-78
2021/06/01 08:05:22;;;;;;;;;;;;;;;22.63;33.87;100938.63;5044221;28;19917;-79
2021/06/01 08:08:06;;;;;;;;;;;;;;;23.02;31.61;100934.78;5042152;28;19913;-78
2021/06/01 08:10:52;;;;;;;;;;;;;;;23.29;32.69;100945.50;5047684;28;19940;-76
2021/06/01 08:13:37;;;;;;;;;;;;;;;23.12;31.40;100943.50;5043227;28;19913;-76
2021/06/01 08:16:22;;;;;;;;;;;;;;;23.38;31.49;100937.56;5042834;28;19917;-77
2021/06/01 08:19:19;;;;;;;;;;;;;;;23.24;28.37;100934.81;5046756;28;20458;-77
2021/06/01 08:24:50;;;;;;;;;;;;;;;23.16;28.64;100934.00;5044028;28;19925;-77
2021/06/01 08:27:34;;;;;;;;;;;;;;;23.19;30.34;100932.41;5055342;28;19913;-78
2021/06/01 08:30:19;;;;;;;;;;;;;;;23.23;29.19;100933.22;5037279;28;19913;-76
2021/06/01 08:33:04;;;;;;;;;;;;;;;23.23;31.23;100938.75;5045135;28;19912;-77
2021/06/01 08:35:48;;;;;;;;;;;;;;;23.08;31.19;100928.84;5048012;28;19943;-77
2021/06/01 08:38:33;;;;;;;;;;;;;;;23.05;30.89;100932.41;5045667;28;20219;-77
2021/06/01 08:41:17;;;;;;;;;;;;;;;23.25;30.84;100933.63;5046676;28;19913;-79
2021/06/01 08:44:03;;;;;;;;;;;;;;;23.22;31.11;100931.63;5061010;28;20360;-79
2021/06/01 08:46:50;;;;;;;;;;;;;;;23.16;31.49;100933.22;5043969;28;19917;-79
2021/06/01 08:49:35;;;;;;;;;;;;;;;23.11;31.50;100928.84;5051341;28;19913;-78
2021/06/01 08:52:20;;;;;;;;;;;;;;;23.30;30.36;100925.69;5059011;28;19921;-79
2021/06/01 08:55:06;;;;;;;;;;;;;;;23.32;30.47;100931.63;5056901;28;20400;-79
2021/06/01 08:57:50;;;;;;;;;;;;;;;23.29;30.39;100926.09;5052027;28;19912;-78
2021/06/01 09:00:35;;;;;;;;;;;;;;;23.22;31.31;100928.84;5054949;28;19912;-77
2021/06/01 09:03:22;;;;;;;;;;;;;;;23.14;30.66;100927.25;5052256;28;19920;-77
2021/06/01 09:06:25;;;;;;;;;;;;;;;23.23;28.62;100920.13;5056407;28;19912;-77
2021/06/01 09:21:04;;;;;;;;;;;;;;;23.36;29.42;100915.00;5012406;28;20392;-77
2021/06/01 09:23:53;;;;;;;;;;;;;;;23.41;29.01;100911.81;5056729;28;20365;-76
2021/06/01 09:26:42;;;;;;;;;;;;;;;23.56;27.83;100916.19;5054265;28;19913;-80
2021/06/01 09:29:28;;;;;;;;;;;;;;;23.41;28.84;100920.16;5051315;28;19917;-79
2021/06/01 09:32:15;;;;;;;;;;;;;;;23.39;29.89;100914.19;5055189;28;19916;-79
2021/06/01 09:35:01;;;;;;;;;;;;;;;23.39;29.40;100912.22;5038523;28;19924;-78
2021/06/01 09:37:45;;;;;;;;;;;;;;;23.65;27.46;100908.25;5057884;28;19913;-79
2021/06/01 09:40:30;;;;;;;;;;;;;;;23.66;26.99;100914.59;5052342;28;19913;-78
2021/06/01 09:43:15;;;;;;;;;;;;;;;23.57;29.35;100911.44;5052592;28;20389;-79
2021/06/01 09:46:18;;;;;;;;;;;;;;;23.46;29.81;100914.22;5050710;28;20923;-80
2021/06/01 09:49:11;;;;;;;;;;;;;;;23.46;30.07;100905.09;5054867;28;19917;-77
2021/06/01 09:52:06;;;;;;;;;;;;;;;23.36;28.79;100903.88;5048476;28;19913;-77
2021/06/01 09:54:58;;;;;;;;;;;;;;;23.42;29.27;100907.81;5054197;28;19913;-76
2021/06/01 09:57:44;;;;;;;;;;;;;;;23.42;30.07;100900.28;5053473;28;19916;-78
2021/06/01 10:00:29;;;;;;;;;;;;;;;23.61;29.35;100893.56;5050620;28;19913;-79
2021/06/01 10:03:21;;;;;;;;;;;;;;;23.53;29.17;100896.75;5048559;28;19913;-77
2021/06/01 10:06:07;;;;;;;;;;;;;;;23.42;30.57;100896.72;5050903;28;19917;-79
2021/06/01 10:08:52;;;;;;;;;;;;;;;23.50;29.42;100892.78;5047900;28;19938;-78
2021/06/01 10:11:37;;;;;;;;;;;;;;;23.59;29.82;100884.84;5052099;28;20304;-77
2021/06/01 10:14:23;;;;;;;;;;;;;;;23.76;29.93;100894.34;5051232;28;20103;-77
2021/06/01 10:17:07;;;;;;;;;;;;;;;23.42;31.18;100896.72;5048244;28;19912;-77
2021/06/01 10:19:52;;;;;;;;;;;;;;;23.45;30.99;100893.19;5052431;28;19912;-78
2021/06/01 10:22:36;;;;;;;;;;;;;;;23.38;30.20;100888.41;5049786;28;19913;-78
2021/06/01 10:25:21;;;;;;;;;;;;;;;23.26;31.63;100880.47;5047931;28;19916;-77
2021/06/01 10:28:10;;;;;;;;;;;;;;;23.19;31.63;100872.19;5056105;28;20377;-78
2021/06/01 10:30:56;;;;;;;;;;;;;;;23.37;30.75;100875.72;5055762;28;20405;-78
2021/06/01 10:33:43;;;;;;;;;;;;;;;23.55;30.96;100866.59;5038585;28;19921;-77
2021/06/01 10:43:18;;;;;;;;;;;;;;;23.71;30.45;100864.19;5034026;28;19913;-77
2021/06/01 10:52:09;;;;;;;;;;;;;;;23.67;31.32;100866.97;5046258;28;19913;-78
2021/06/01 10:55:12;;;;;;;;;;;;;;;23.71;30.62;100859.44;5051320;28;19913;-77
2021/06/01 10:57:58;;;;;;;;;;;;;;;23.78;30.69;100855.81;5053482;28;19912;-78
2021/06/01 11:03:27;;;;;;;;;;;;;;;24.13;29.99;100846.56;5047992;28;19917;-77
2021/06/01 11:06:13;;;;;;;;;;;;;;;24.04;30.29;100851.78;5052412;28;19912;-77
2021/06/01 11:08:57;;;;;;;;;;;;;;;24.03;29.70;100848.19;5046553;28;19913;-78
2021/06/01 11:11:42;;;;;;;;;;;;;;;24.10;29.89;100836.25;5049814;28;19913;-78
2021/06/01 11:14:28;;;;;;;;;;;;;;;24.25;29.39;100843.38;5049179;28;19913;-78
2021/06/01 11:17:13;;;;;;;;;;;;;;;24.35;29.65;100838.94;5044005;28;19913;-76
2021/06/01 11:20:06;;;;;;;;;;;;;;;24.13;30.00;100841.78;5042008;28;19913;-77
2021/06/01 11:32:46;;;;;;;;;;;;;;;23.96;30.75;100839.91;5036492;28;19916;-77
2021/06/01 11:35:42;;;;;;;;;;;;;;;23.79;31.22;100830.44;5032502;28;19917;-76
2021/06/01 11:38:32;;;;;;;;;;;;;;;23.71;31.75;100828.88;5043806;28;19913;-78
2021/06/01 11:44:15;;;;;;;;;;;;;;;23.62;32.14;100817.41;5058182;28;20301;-80
2021/06/01 11:47:16;;;;;;;;;;;;;;;23.24;32.96;100815.47;5063651;28;19916;-79
2021/06/01 11:53:14;;;;;;;;;;;;;;;23.28;33.52;100805.94;5054735;28;19913;-79
2021/06/01 11:56:03;;;;;;;;;;;;;;;23.25;33.76;100814.28;5059396;28;19913;-79
2021/06/01 12:02:13;;;;;;;;;;;;;;;23.50;33.05;100803.16;5059093;28;20288;-78
2021/06/01 12:14:12;;;;;;;;;;;;;;;23.92;31.75;100777.22;5046749;28;19917;-79
2021/06/01 12:20:11;;;;;;;;;;;;;;;24.26;29.87;100786.59;5047763;28;19916;-79
2021/06/01 12:22:55;;;;;;;;;;;;;;;24.27;29.73;100779.84;5051226;28;19913;-78
2021/06/01 12:25:56;;;;;;;;;;;;;;;24.65;29.09;100789.88;5040604;28;19921;-78
2021/06/01 12:32:11;;;;;;;;;;;;;;;24.70;29.91;100783.88;5048396;28;20451;-77
2021/06/01 12:44:04;;;;;;;;;;;;;;;24.36;30.79;100774.59;5041873;28;19913;-78
2021/06/01 13:06:20;;;;;;;;;;;;;;;24.32;31.12;100765.50;5059196;28;19917;-80
2021/06/01 13:20:55;;;;;;;;;;;;;;;24.26;31.03;100745.69;5054581;28;19912;-78
2021/06/01 13:24:06;;;;;;;;;;;;;;;24.24;31.51;100747.28;5058673;28;19912;-77
2021/06/01 13:40:05;;;;;;;;;;;;;;;23.69;32.93;100734.06;4970454;28;19913;-79
2021/06/01 13:46:04;;;;;;;;;;;;;;;24.07;31.80;100731.50;5054047;28;20296;-79
2021/06/01 14:30:22;;;;;;;;;;;;;;;24.11;31.60;100710.03;5058712;28;19917;-77
2021/06/01 15:50:07;;;;;;;;;;;;;;;24.68;28.94;100672.25;5058385;28;19913;-80
2021/06/01 16:13:49;;;;;;;;;;;;;;;24.56;29.07;100674.75;5053685;28;19923;-78
2021/06/01 16:22:58;;;;;;;;;;;;;;;24.65;29.08;100677.84;5057505;28;19913;-77
2021/06/01 16:44:47;;;;;;;;;;;;;;;24.64;29.52;100673.47;5045067;28;20377;-76
2021/06/01 17:05:50;;;;;;;;;;;;;;;24.08;30.77;100671.94;5034947;28;19917;-76
2021/06/01 17:09:01;;;;;;;;;;;;;;;23.95;31.40;100673.63;5053306;28;19917;-76
2021/06/01 17:11:48;;;;;;;;;;;;;;;24.01;30.09;100678.34;5053073;28;19916;-77
2021/06/01 17:14:32;;;;;;;;;;;;;;;24.17;30.41;100675.09;5050177;28;19913;-77
2021/06/01 17:17:18;;;;;;;;;;;;;;;24.31;31.03;100686.09;5054137;28;19913;-76
2021/06/01 17:20:28;;;;;;;;;;;;;;;23.87;30.93;100678.44;5047267;28;19912;-77
2021/06/01 17:23:36;;;;;;;;;;;;;;;23.75;31.73;100676.91;5037245;28;19913;-77
2021/06/01 17:34:36;;;;;;;;;;;;;;;23.67;31.16;100685.72;5046890;28;19913;-78
2021/06/01 17:35:36;;;;;;;;;;;;;;;23.68;32.06;100676.94;5051556;28;20380;-75
2021/06/01 17:38:20;;;;;;;;;;;;;;;23.84;31.36;100684.78;5039125;28;19913;-76
2021/06/01 17:41:09;;;;;;;;;;;;;;;23.65;31.08;100688.09;5044284;28;19917;-75
2021/06/01 17:43:58;;;;;;;;;;;;;;;23.58;32.18;100691.69;5052678;28;19913;-76
2021/06/01 17:46:44;;;;;;;;;;;;;;;23.76;31.30;100683.28;5051723;28;19916;-76
2021/06/01 17:49:30;;;;;;;;;;;;;;;23.60;31.68;100692.06;5046693;28;19912;-77
2021/06/01 17:52:23;;;;;;;;;;;;;;;23.44;31.45;100684.19;5043403;28;19976;-77
2021/06/01 17:55:08;;;;;;;;;;;;;;;23.19;31.96;100683.50;5036621;28;19912;-77
2021/06/01 17:57:56;;;;;;;;;;;;;;;23.22;32.64;100687.44;5055812;28;19912;-77
2021/06/01 18:00:42;;;;;;;;;;;;;;;22.97;32.65;100690.28;5058175;28;19912;-76
2021/06/01 18:03:27;;;;;;;;;;;;;;;22.92;32.93;100683.16;5056299;28;19921;-77
2021/06/01 18:06:12;;;;;;;;;;;;;;;22.86;33.29;100686.72;5045813;28;19916;-77
2021/06/01 18:09:34;;;;;;;;;;;;;;;22.55;33.99;100680.03;5044590;28;19912;-75
2021/06/01 18:37:54;;;;;;;;;;;;;;;21.63;36.34;100699.28;5058123;28;19912;-75
2021/06/01 18:59:58;;;;;;;;;;;;;;;21.26;38.37;100725.19;5051842;28;19912;-75
2021/06/01 19:24:10;;;;;;;;;;;;;;;20.51;42.94;100744.38;5043132;28;20297;-75
2021/06/01 19:27:23;;;;;;;;;;;;;;;20.26;43.42;100758.75;5051606;28;19917;-74
2021/06/01 19:43:11;;;;;;;;;;;;;;;19.83;44.73;100776.00;5048478;28;19913;-74
2021/06/01 19:51:49;;;;;;;;;;;;;;;19.63;45.20;100783.63;5044926;28;19920;-75
2021/06/01 19:54:34;;;;;;;;;;;;;;;19.77;44.98;100785.78;5053328;28;19916;-74
2021/06/01 19:57:21;;;;;;;;;;;;;;;19.42;45.75;100795.16;5052634;28;19916;-75
2021/06/01 20:00:07;;;;;;;;;;;;;;;19.23;46.17;100798.03;5051664;28;19912;-74
2021/06/01 20:02:56;;;;;;;;;;;;;;;19.43;45.72;100801.47;5047551;28;19912;-75
2021/06/01 20:05:41;;;;;;;;;;;;;;;19.18;46.09;100809.38;5053882;28;19916;-75
2021/06/01 20:08:27;;;;;;;;;;;;;;;19.27;45.82;100807.13;5053652;28;19912;-75
2021/06/01 20:11:12;;;;;;;;;;;;;;;19.37;45.13;100814.78;5049332;28;19912;-75
2021/06/01 20:13:57;;;;;;;;;;;;;;;19.43;44.85;100813.28;5047510;28;19913;-75
2021/06/01 20:16:49;;;;;;;;;;;;;;;19.44;47.31;100825.13;5054834;28;20361;-76
2021/06/01 20:19:37;;;;;;;;;;;;;;;20.05;44.82;100822.00;5052685;28;20356;-75
2021/06/01 20:22:24;;;;;;;;;;;;;;;20.35;44.75;100822.78;5055133;28;19913;-76
2021/06/01 20:25:30;;;;;;;;;;;;;;;20.54;43.59;100820.97;5033186;28;20301;-75
2021/06/01 20:28:20;;;;;;;;;;;;;;;20.69;43.34;100829.03;5043454;28;19913;-75
2021/06/01 20:31:08;;;;;;;;;;;;;;;20.69;42.86;100831.78;5048576;28;19916;-77
2021/06/01 20:33:54;;;;;;;;;;;;;;;20.77;42.67;100836.22;5044600;28;20376;-77
2021/06/01 20:36:39;;;;;;;;;;;;;;;20.82;42.78;100837.84;5040432;28;20381;-77
2021/06/01 20:39:24;;;;;;;;;;;;;;;20.89;42.43;100843.41;5038063;28;19912;-77
2021/06/01 20:42:10;;;;;;;;;;;;;;;20.93;41.99;100845.03;5034244;28;19913;-77
2021/06/01 20:44:55;;;;;;;;;;;;;;;21.04;41.36;100855.38;5049250;28;19913;-77
2021/06/01 20:47:42;;;;;;;;;;;;;;;21.01;41.83;100850.63;5043720;28;19917;-77
2021/06/01 20:50:29;;;;;;;;;;;;;;;21.08;41.09;100857.00;5049009;28;19912;-77
2021/06/01 20:53:14;;;;;;;;;;;;;;;21.00;41.82;100860.91;5046035;28;20373;-76
2021/06/01 20:55:59;;;;;;;;;;;;;;;21.03;41.83;100860.13;5052882;28;19913;-78
2021/06/01 20:58:45;;;;;;;;;;;;;;;21.11;40.46;100856.25;5046097;28;20114;-76